createdAt,value
2019-03-10T08:44:22.868Z,7.50
2019-03-10T08:50:03.774Z,7.60
2019-03-10T08:52:43.610Z,7.60
2019-03-10T08:55:35.487Z,7.70
2019-03-10T08:58:26.770Z,7.80
2019-03-10T09:01:16.011Z,7.90
2019-03-10T09:04:16.699Z,8.00
2019-03-10T09:07:10.961Z,7.90
2019-03-10T09:10:11.562Z,8.00
2019-03-10T09:12:53.697Z,8.20
2019-03-10T09:16:00.413Z,8.30
2019-03-10T09:18:51.595Z,8.40
2019-03-10T09:21:34.755Z,8.40
2019-03-10T09:24:23.425Z,8.30
2019-03-10T09:27:14.860Z,8.10
2019-03-10T09:30:03.431Z,8.00
2019-03-10T09:33:03.691Z,7.90
2019-03-10T09:35:47.341Z,7.90
2019-03-10T09:38:38.652Z,8.00
2019-03-10T09:41:26.070Z,8.00
2019-03-10T09:44:18.361Z,8.00
2019-03-10T09:47:02.975Z,8.10
2019-03-10T09:49:57.215Z,8.10
2019-03-10T09:52:58.094Z,8.20
2019-03-10T09:55:44.915Z,8.40
2019-03-10T09:58:36.704Z,8.60
2019-03-10T10:01:27.949Z,8.60
2019-03-10T10:04:19.392Z,8.70
2019-03-10T10:07:08.221Z,8.80
2019-03-10T10:09:56.771Z,9.00
2019-03-10T10:12:44.382Z,9.00
2019-03-10T10:15:48.218Z,9.00
2019-03-10T10:18:28.979Z,9.00
2019-03-10T10:21:25.255Z,9.10
2019-03-10T10:24:05.102Z,9.10
2019-03-10T10:26:40.670Z,9.10
2019-03-10T10:29:19.807Z,9.10
2019-03-10T10:32:19.063Z,9.20
2019-03-10T10:34:57.932Z,9.20
2019-03-10T10:37:49.557Z,9.10
2019-03-10T10:40:38.201Z,9.20
2019-03-10T10:43:18.074Z,8.90
2019-03-10T10:46:05.639Z,8.90
2019-03-10T10:48:50.340Z,8.90
2019-03-10T10:51:41.416Z,8.90
2019-03-10T10:54:29.118Z,8.90
2019-03-10T10:57:16.058Z,8.80
2019-03-10T11:00:13.275Z,8.60
2019-03-10T11:02:52.991Z,8.70
2019-03-10T11:05:41.921Z,8.70
2019-03-10T11:08:48.641Z,8.70
2019-03-10T11:11:55.364Z,8.60
2019-03-10T11:14:42.780Z,8.60
2019-03-10T11:17:21.419Z,8.60
2019-03-10T11:20:02.105Z,8.60
2019-03-10T11:22:39.674Z,8.60
2019-03-10T11:25:23.706Z,8.60
2019-03-10T11:28:21.196Z,8.70
2019-03-10T11:31:04.341Z,8.70
2019-03-10T11:33:55.811Z,8.70
2019-03-10T11:36:47.256Z,8.70
2019-03-10T11:39:40.738Z,8.70
2019-03-10T11:42:22.306Z,8.60
2019-03-10T11:45:02.472Z,8.60
2019-03-10T11:47:40.091Z,8.60
2019-03-10T11:50:47.387Z,8.50
2019-03-10T11:57:05.595Z,8.30
2019-03-10T11:59:48.452Z,8.30
2019-03-10T12:02:35.261Z,8.40
2019-03-10T12:05:39.069Z,8.30
2019-03-10T12:08:30.211Z,8.20
2019-03-10T12:10:59.658Z,8.30
2019-03-10T12:13:29.170Z,8.40
2019-03-10T12:15:58.265Z,8.30
2019-03-10T12:18:28.425Z,8.30
2019-03-10T12:20:57.916Z,8.00
2019-03-10T12:23:27.375Z,7.70
2019-03-10T12:25:56.791Z,7.60
2019-03-10T12:28:26.513Z,7.50
2019-03-10T12:30:56.311Z,7.40
2019-03-10T12:33:26.035Z,7.20
2019-03-10T12:35:55.476Z,7.10
2019-03-10T12:38:24.952Z,7.10
2019-03-10T12:40:54.717Z,7.00
2019-03-10T12:43:24.798Z,7.00
2019-03-10T12:45:54.595Z,7.00
2019-03-10T12:48:24.040Z,7.10
2019-03-10T12:50:54.455Z,7.10
2019-03-10T12:53:24.313Z,7.10
2019-03-10T12:55:53.439Z,7.10
2019-03-10T12:58:23.001Z,7.00
2019-03-10T13:00:52.883Z,7.00
2019-03-10T13:03:22.410Z,7.00
2019-03-10T13:05:52.299Z,6.90
2019-03-10T13:08:22.229Z,6.90
2019-03-10T13:10:51.406Z,6.90
2019-03-10T13:13:20.978Z,6.90
2019-03-10T13:15:50.158Z,6.80
2019-03-10T13:18:19.583Z,6.80
2019-03-10T13:20:49.727Z,6.70
2019-03-10T13:23:19.634Z,6.70
2019-03-10T13:25:48.869Z,6.70
2019-03-10T13:28:18.115Z,6.60
2019-03-10T13:30:48.313Z,6.50
2019-03-10T13:33:17.815Z,6.50
2019-03-10T13:35:47.330Z,6.40
2019-03-10T13:38:17.146Z,6.50
2019-03-10T13:40:46.979Z,6.60
2019-03-10T13:43:16.461Z,6.60
2019-03-10T13:45:45.563Z,6.50
2019-03-10T13:48:15.166Z,6.50
2019-03-10T13:50:44.362Z,6.50
2019-03-10T13:53:13.999Z,6.50
2019-03-10T13:55:43.896Z,6.50
2019-03-10T13:58:13.550Z,6.50
2019-03-10T14:00:43.438Z,6.50
2019-03-10T14:03:13.731Z,6.50
2019-03-10T14:05:43.906Z,6.50
2019-03-10T14:08:13.438Z,6.50
2019-03-10T14:10:43.141Z,6.50
2019-03-10T14:13:12.727Z,6.50
2019-03-10T14:15:44.352Z,6.50
2019-03-10T14:18:14.720Z,6.50
2019-03-10T14:20:43.948Z,6.50
2019-03-10T14:23:13.530Z,6.60
2019-03-10T14:25:42.850Z,6.50
2019-03-10T14:28:12.247Z,6.50
2019-03-10T14:30:42.465Z,6.50
2019-03-10T14:33:12.102Z,6.50
2019-03-10T14:35:42.207Z,6.50
2019-03-10T14:38:11.387Z,6.50
2019-03-10T14:40:41.357Z,6.60
2019-03-10T14:43:10.670Z,6.60
2019-03-10T14:45:40.190Z,6.50
2019-03-10T14:48:10.373Z,6.50
2019-03-10T14:51:27.851Z,6.50
2019-03-10T14:53:57.461Z,6.50
2019-03-10T14:56:27.033Z,6.50
2019-03-10T15:02:21.019Z,6.40
2019-03-10T15:04:50.552Z,6.50
2019-03-10T15:07:20.271Z,6.50
2019-03-10T15:14:16.090Z,6.50
2019-03-10T15:16:45.250Z,6.40
2019-03-10T15:19:15.346Z,6.50
2019-03-10T15:21:45.785Z,6.40
2019-03-10T15:24:15.347Z,6.40
2019-03-10T15:26:46.107Z,6.50
2019-03-10T15:29:16.307Z,6.40
2019-03-10T15:31:45.850Z,6.40
2019-03-10T15:34:15.698Z,6.40
2019-03-10T15:36:45.830Z,6.50
2019-03-10T15:39:15.122Z,6.40
2019-03-10T15:41:44.970Z,6.50
2019-03-10T15:44:15.261Z,6.50
2019-03-10T15:46:45.523Z,6.40
2019-03-10T15:49:14.870Z,6.50
2019-03-10T15:51:44.792Z,6.50
2019-03-10T15:54:14.078Z,6.40
2019-03-10T15:56:43.642Z,6.50
2019-03-10T15:59:13.687Z,6.50
2019-03-10T16:01:43.654Z,6.50
2019-03-10T16:04:23.347Z,6.40
2019-03-10T16:06:52.915Z,6.40
2019-03-10T16:09:22.614Z,6.50
2019-03-10T16:11:52.541Z,6.50
2019-03-10T16:14:22.031Z,6.50
2019-03-10T16:16:51.310Z,6.60
2019-03-10T16:19:20.864Z,6.60
2019-03-10T16:21:51.123Z,6.70
2019-03-10T16:24:20.645Z,6.70
2019-03-10T16:26:49.853Z,6.80
2019-03-10T16:29:19.510Z,6.90
2019-03-10T16:31:49.331Z,7.00
2019-03-10T16:34:18.673Z,7.00
2019-03-10T16:36:48.203Z,7.00
2019-03-10T16:39:17.848Z,7.10
2019-03-10T16:41:47.473Z,7.10
2019-03-10T16:44:17.808Z,7.20
2019-03-10T16:46:47.799Z,7.20
2019-03-10T16:49:18.183Z,7.20
2019-03-10T16:51:47.743Z,7.30
2019-03-10T16:54:17.294Z,7.30
2019-03-10T16:56:46.650Z,7.30
2019-03-10T16:59:16.096Z,7.30
2019-03-10T17:01:45.559Z,7.40
2019-03-10T17:04:15.176Z,7.40
2019-03-10T17:06:45.142Z,7.40
2019-03-10T17:09:21.330Z,7.40
2019-03-10T17:11:50.717Z,7.50
2019-03-10T17:14:21.322Z,7.50
2019-03-10T17:16:51.171Z,7.50
2019-03-10T17:19:21.061Z,7.50
2019-03-10T17:21:51.167Z,7.60
2019-03-10T17:24:21.095Z,7.70
2019-03-10T17:26:50.330Z,7.70
2019-03-10T17:29:19.964Z,7.80
2019-03-10T17:31:49.327Z,7.80
2019-03-10T17:34:18.832Z,7.90
2019-03-10T17:36:48.983Z,7.90
2019-03-10T17:39:18.943Z,8.00
2019-03-10T17:41:48.740Z,8.10
2019-03-10T17:44:18.267Z,8.10
2019-03-10T17:46:47.572Z,8.10
2019-03-10T17:49:17.760Z,8.10
2019-03-10T17:51:47.154Z,8.10
2019-03-10T17:54:17.596Z,8.20
2019-03-10T17:56:47.108Z,8.20
2019-03-10T17:59:16.907Z,8.20
2019-03-10T18:01:46.382Z,8.20
2019-03-10T18:04:16.226Z,8.10
2019-03-10T18:06:45.863Z,8.10
2019-03-10T18:09:15.113Z,8.10
2019-03-10T18:11:44.866Z,8.10
2019-03-10T18:14:14.629Z,8.00
2019-03-10T18:16:44.135Z,8.00
2019-03-10T18:19:13.357Z,8.00
2019-03-10T18:21:43.247Z,8.00
2019-03-10T18:24:12.606Z,8.10
2019-03-10T18:26:42.303Z,8.10
2019-03-10T18:29:11.577Z,8.00
2019-03-10T18:31:40.729Z,8.00
2019-03-10T18:34:10.340Z,8.00
2019-03-10T18:36:40.017Z,8.00
2019-03-10T18:39:09.535Z,7.90
2019-03-10T18:41:39.128Z,7.90
2019-03-10T18:44:09.256Z,7.90
2019-03-10T18:46:38.456Z,7.90
2019-03-10T18:49:07.642Z,7.90
2019-03-10T18:51:36.846Z,7.90
2019-03-10T18:54:07.118Z,7.90
2019-03-10T18:56:36.785Z,7.90
2019-03-10T18:59:06.760Z,7.90
2019-03-10T19:01:36.513Z,8.00
2019-03-10T19:04:06.551Z,8.00
2019-03-10T19:06:36.626Z,8.10
2019-03-10T19:09:07.920Z,8.10
2019-03-10T19:11:37.463Z,8.10
2019-03-10T19:14:07.817Z,8.10
2019-03-10T19:16:38.058Z,8.20
2019-03-10T19:19:08.998Z,8.20
2019-03-10T19:21:40.670Z,8.20
2019-03-10T19:24:10.262Z,8.20
2019-03-10T19:26:40.170Z,8.20
2019-03-10T19:29:10.088Z,8.30
2019-03-10T19:31:40.824Z,8.30
2019-03-10T19:34:10.272Z,8.20
2019-03-10T19:36:59.026Z,8.10
2019-03-10T19:39:28.398Z,8.10
2019-03-10T19:41:58.817Z,8.00
2019-03-10T19:44:28.186Z,7.90
2019-03-10T19:46:59.388Z,7.90
2019-03-10T19:49:29.055Z,7.90
2019-03-10T19:51:58.370Z,7.90
2019-03-10T19:54:28.602Z,7.80
2019-03-10T19:56:57.782Z,7.80
2019-03-10T19:59:28.086Z,7.80
2019-03-10T20:01:58.501Z,7.80
2019-03-10T20:04:28.825Z,7.80
2019-03-10T20:06:58.737Z,7.80
2019-03-10T20:09:28.045Z,7.80
2019-03-10T20:11:57.854Z,7.80
2019-03-10T20:14:27.351Z,7.80
2019-03-10T20:16:56.523Z,7.90
2019-03-10T20:19:25.680Z,7.90
2019-03-10T20:21:55.258Z,7.90
2019-03-10T20:24:24.815Z,7.90
2019-03-10T20:26:54.023Z,8.00
2019-03-10T20:29:23.714Z,8.10
2019-03-10T20:31:53.216Z,8.10
2019-03-10T20:34:22.407Z,8.10
2019-03-10T20:36:52.372Z,8.00
2019-03-10T20:39:21.924Z,8.10
2019-03-10T20:41:51.571Z,8.00
2019-03-10T20:44:21.049Z,8.00
2019-03-10T20:46:50.144Z,8.00
2019-03-10T20:49:19.963Z,8.10
2019-03-10T20:51:49.073Z,8.00
2019-03-10T20:54:18.940Z,8.00
2019-03-10T20:56:48.063Z,8.00
2019-03-10T20:59:18.161Z,8.00
2019-03-10T21:01:47.567Z,8.00
2019-03-10T21:04:17.521Z,8.00
2019-03-10T21:06:46.658Z,8.10
2019-03-10T21:09:16.251Z,8.10
2019-03-10T21:11:45.623Z,8.10
2019-03-10T21:14:14.794Z,8.10
2019-03-10T21:16:43.924Z,8.10
2019-03-10T21:19:13.382Z,8.10
2019-03-10T21:21:43.275Z,8.10
2019-03-10T21:24:12.732Z,8.20
2019-03-10T21:26:41.908Z,8.20
2019-03-10T21:29:11.580Z,8.20
2019-03-10T21:31:41.523Z,8.10
2019-03-10T21:34:11.019Z,8.10
2019-03-10T21:36:40.560Z,8.10
2019-03-10T21:39:10.140Z,8.10
2019-03-10T21:41:39.692Z,8.20
2019-03-10T21:44:08.820Z,8.20
2019-03-10T21:46:37.854Z,8.20
2019-03-10T21:49:07.698Z,8.20
2019-03-10T21:51:37.564Z,8.20
2019-03-10T21:54:07.131Z,8.20
2019-03-10T21:56:36.172Z,8.20
2019-03-10T21:59:05.969Z,8.40
2019-03-10T22:01:35.108Z,8.40
2019-03-10T22:04:04.422Z,8.40
2019-03-10T22:06:33.587Z,8.40
2019-03-10T22:09:04.581Z,8.40
2019-03-10T22:11:35.197Z,8.40
2019-03-10T22:14:05.136Z,8.40
2019-03-10T22:16:34.612Z,8.40
2019-03-10T22:19:04.449Z,8.40
2019-03-10T22:21:34.269Z,8.30
2019-03-10T22:24:03.774Z,8.30
2019-03-10T22:26:33.569Z,8.40
2019-03-10T22:29:03.141Z,8.50
2019-03-10T22:31:32.746Z,8.40
2019-03-10T22:34:02.629Z,8.40
2019-03-10T22:36:32.327Z,8.50
2019-03-10T22:39:01.809Z,8.40
2019-03-10T22:41:31.404Z,8.40
2019-03-10T22:44:01.267Z,8.30
2019-03-10T22:46:31.304Z,8.30
2019-03-10T22:49:00.505Z,8.30
2019-03-10T22:51:30.335Z,8.30
2019-03-10T22:54:00.146Z,8.20
2019-03-10T22:56:29.991Z,8.20
2019-03-10T22:58:59.476Z,8.10
2019-03-10T23:01:29.492Z,8.00
2019-03-10T23:03:58.944Z,8.10
2019-03-10T23:06:28.088Z,8.00
2019-03-10T23:08:57.567Z,7.90
2019-03-10T23:11:26.567Z,7.90
2019-03-10T23:13:56.287Z,7.90
2019-03-10T23:16:26.037Z,7.90
2019-03-10T23:18:55.151Z,7.90
2019-03-10T23:21:24.227Z,7.80
2019-03-10T23:23:53.378Z,7.80
2019-03-10T23:26:22.967Z,7.80
2019-03-10T23:28:52.391Z,7.80
2019-03-10T23:31:21.792Z,7.80
2019-03-10T23:33:50.843Z,7.90
2019-03-10T23:36:20.264Z,7.80
2019-03-10T23:38:49.692Z,7.80
2019-03-10T23:41:19.725Z,7.90
2019-03-10T23:43:48.834Z,7.90
2019-03-10T23:46:18.543Z,7.90
2019-03-10T23:48:47.972Z,7.90
2019-03-10T23:51:17.791Z,7.90
2019-03-10T23:53:47.820Z,7.90
2019-03-10T23:56:17.656Z,7.80
2019-03-10T23:58:47.820Z,7.80
